AirNav   TITAN Aviation Fuels
 
 666 users online  

TE45 Buffalo Chips Airpark
Joshua, Texas, USA

GOING TO JOSHUA?


FAA INFORMATION EFFECTIVE 22 APRIL 2021

Location

FAA Identifier: TE45
Lat/Long: 32-28-11.5020N 097-27-55.0720W
32-28.191700N 097-27.917867W
32.4698617,-97.4652978
(estimated)
Elevation: 960 ft. / 293 m (estimated)
Variation: 07E (1985)
From city: 4 miles NE of JOSHUA, TX
Time zone: UTC -5 (UTC -6 during Standard Time)
Zip code: 76058

Airport Operations

Airport use: Private use. Permission required prior to landing
Activation date: 03/1988
Control tower: no
ARTCC: FORT WORTH CENTER
FSS: FORT WORTH FLIGHT SERVICE STATION
Attendance: UNATNDD
Wind indicator: yes
Segmented circle: no

Airport Communications

WX AWOS-3 at CPT (7 nm S): 119.525 (817-641-4135)
WX AWOS-3 at FWS (10 nm NE): 120.025 (817-426-4172)
WX AWOS-3 at GDJ (18 nm W): 118.925 (817-573-7514)

Nearby radio navigation aids

VOR radial/distance  VOR name  Freq  Var
FUZr204/29.0RANGER VORTAC115.7006E
MQPr111/31.0MILLSAP VORTAC117.7009E
TTTr216/32.2MAVERICK VOR/DME113.1006E
CVEr222/37.9COWBOY VOR/DME116.2006E

Airport Services

Runway Information

Runway 17/35

Dimensions: 5400 x 100 ft. / 1646 x 30 m
Surface: turf
RUNWAY 17  RUNWAY 35
Traffic pattern: leftleft
Displaced threshold: 500 ft.500 ft.
Obstructions: 25 ft. plines, marked and lighted, 100 ft. from runway25 ft. plines, marked and lighted, 100 ft. from runway

Airport Ownership and Management from official FAA records

Ownership: Privately-owned
Owner: ALAN SPARKS
BOX 1456
JOSHUA, TX 76058
Phone 817-558-7715
Manager: ALAN SPARKS
BOX 1456
JOSHUA, TX 76058
Phone 817-558-7715

Airport Operational Statistics

Aircraft based on the field: 31
Single engine airplanes: 8
Multi engine airplanes: 2
Jet airplanes: 3
Helicopters: 18
    

Additional Remarks

FOR CD CTC REGIONAL APCH AT 972-615-2799.

Instrument Procedures

There are no published instrument procedures at TE45.

Some nearby airports with instrument procedures:

KCPT - Cleburne Regional Airport (7 nm S)
50F - Bourland Field Airport (9 nm NW)
KFWS - Fort Worth Spinks Airport (10 nm NE)
KGDJ - Granbury Regional Airport (18 nm W)
KNFW - Fort Worth Naval Air Station JRB (Carswell Field) Airport (18 nm N)
KWEA - Parker County Airport (20 nm NW)
 
Loc | Ops | Rwys | IFR | FBO | Links
Com | Nav | Svcs | Stats | Notes

City of Fort Worth
 
Area around TE45 (Buffalo Chips Airpark)
 
Road maps at: MapQuest Bing Google
 
Aerial photo
No photo
 
Sectional chart

 
Airport distance calculator
Flying to Buffalo Chips Airpark? Find the distance to fly.

From to TE45

Sunrise and sunset
Times for 11-May-2021
 Local
(UTC-5)
 Zulu
(UTC)
Morning civil twilight06:0911:09
Sunrise06:3511:35
Sunset20:1701:17
Evening civil twilight20:4401:44

Current date and time
Zulu (UTC)  12-May-2021 04:41:11
Local (UTC-5)  11-May-2021 23:41:11
 
METAR
KCPT 
7nm S 
120415Z AUTO 01010KT 5SM BR OVC004 15/15 A3013 RMK A01
KFWS 
10nm NE 
120415Z AUTO 36010G15KT 10SM OVC005 15/13 A3013 RMK AO2 T01470139
KNFW 
18nm N 
120420Z AUTO 36010KT 10SM OVC010 16/14 A3012 RMK AO2 CIG 006V014 T01560139 TSNO $
KGDJ 
18nm W 
AWOS-3 118.925 817-573-7514
120415Z AUTO 34005KT 10SM OVC008 16/14 A3015 RMK AO2 T01550136
TAF
KNFW 
18nm N 
1123/1223 36012G20KT 9999 -RA VCTS OVC006CB QNH2995INS FM120200 03008KT 9999 VCSH OVC005 QNH3003INS FM122000 04009KT 9999 OVC022 QNH3020INS AUTOMATED SENSOR METWATCH 1204 TIL 1211 T12/1211Z T17/1222Z FN20048
KGKY 
22nm NE 
120310Z 1203/1224 01010KT P6SM OVC007 TEMPO 1203/1206 5SM BR FM120600 03010KT 5SM BR OVC004 FM121500 04011KT P6SM OVC007 FM122100 04011KT P6SM BKN010
NOTAMs
Click for the latest NOTAMs
NOTAMs are issued by the DoD/FAA and will open in a separate window not controlled by AirNav.

 

 
 

Would you like to see your business listed on this page?

 If your business provides an interesting product or service to pilots, flight crews, aircraft, or users of the Buffalo Chips Airpark, you should consider listing it here.  To start the listing process, click on the button below
 
Add a business
 

Other Pages about Buffalo Chips Airpark

Update a link
 
Copyright © AirNav, LLC. All rights reserved. Privacy Policy  Contact